createdAt,value
2023-05-23T00:02:09.774Z,13.72
2023-05-23T00:04:38.487Z,12.85
2023-05-23T00:07:07.504Z,16.73
2023-05-23T00:09:36.265Z,15.85
2023-05-23T00:12:05.321Z,16.47
2023-05-23T00:14:35.559Z,18.45
2023-05-23T00:17:05.385Z,17.50
2023-05-23T00:19:36.011Z,14.40
2023-05-23T00:22:04.883Z,14.90
2023-05-23T00:24:33.693Z,16.82
2023-05-23T00:27:03.979Z,15.00
2023-05-23T00:29:32.664Z,19.82
2023-05-23T00:32:01.307Z,14.55
2023-05-23T00:34:30.681Z,12.73
2023-05-23T00:36:59.988Z,17.25
2023-05-23T00:39:28.649Z,16.50
2023-05-23T00:41:58.046Z,13.00
2023-05-23T00:44:26.739Z,18.20
2023-05-23T00:46:58.092Z,16.70
2023-05-23T00:49:28.387Z,18.73
2023-05-23T00:51:57.137Z,14.83
2023-05-23T00:54:31.625Z,14.07
2023-05-23T00:57:00.656Z,17.17
2023-05-23T00:59:30.186Z,15.98
2023-05-23T01:02:03.261Z,18.62
2023-05-23T01:04:34.537Z,16.27
2023-05-23T01:07:03.647Z,14.40
2023-05-23T01:09:33.356Z,17.70
2023-05-23T01:12:37.134Z,16.25
2023-05-23T01:15:17.908Z,15.85
2023-05-23T01:17:55.547Z,14.75
2023-05-23T01:20:28.556Z,13.60
2023-05-23T01:23:03.911Z,16.17
2023-05-23T01:25:48.005Z,17.77
2023-05-23T01:28:19.972Z,16.52
2023-05-23T01:30:51.727Z,15.75
2023-05-23T01:33:23.723Z,19.98
2023-05-23T01:35:52.976Z,17.92
2023-05-23T01:38:21.733Z,16.80
2023-05-23T01:40:50.632Z,19.85
2023-05-23T01:43:19.605Z,21.45
2023-05-23T01:45:49.307Z,18.07
2023-05-23T01:48:19.643Z,17.92
2023-05-23T01:50:49.039Z,16.85
2023-05-23T01:53:23.573Z,17.23
2023-05-23T01:55:54.006Z,19.75
2023-05-23T01:58:22.781Z,20.97
2023-05-23T02:00:51.696Z,19.87
2023-05-23T02:03:20.860Z,20.25
2023-05-23T02:05:49.714Z,17.30
2023-05-23T02:08:18.390Z,17.77
2023-05-23T02:10:47.032Z,18.73
2023-05-23T02:13:15.784Z,16.97
2023-05-23T02:15:44.549Z,17.05
2023-05-23T02:18:13.307Z,17.37
2023-05-23T02:20:42.027Z,18.67
2023-05-23T02:23:11.536Z,18.92
2023-05-23T02:25:40.632Z,19.50
2023-05-23T02:28:13.141Z,19.25
2023-05-23T02:30:41.864Z,20.75
2023-05-23T02:33:11.000Z,20.70
2023-05-23T02:35:39.877Z,19.30
2023-05-23T02:38:08.800Z,21.93
2023-05-23T02:40:37.452Z,19.27
2023-05-23T02:43:06.247Z,27.80
2023-05-23T02:45:35.056Z,18.98
2023-05-23T02:48:03.752Z,20.17
2023-05-23T02:50:32.443Z,24.52
2023-05-23T02:53:01.156Z,20.68
2023-05-23T02:55:29.970Z,35.95
2023-05-23T02:57:58.941Z,35.90
2023-05-23T03:00:28.674Z,23.65
2023-05-23T03:02:57.528Z,18.75
2023-05-23T03:05:26.515Z,21.82
2023-05-23T03:07:55.233Z,22.98
2023-05-23T03:10:24.082Z,22.37
2023-05-23T03:12:52.884Z,21.25
2023-05-23T03:15:21.615Z,22.50
2023-05-23T03:17:50.321Z,21.97
2023-05-23T03:20:18.994Z,25.32
2023-05-23T03:22:48.694Z,24.37
2023-05-23T03:25:17.544Z,24.45
2023-05-23T03:27:46.232Z,25.32
2023-05-23T03:30:17.852Z,32.00
2023-05-23T03:32:46.618Z,36.50
2023-05-23T03:35:15.652Z,36.45
2023-05-23T03:37:44.353Z,46.88
2023-05-23T03:40:13.030Z,46.95
2023-05-23T03:42:41.745Z,49.60
2023-05-23T03:45:10.473Z,45.67
2023-05-23T03:47:39.159Z,38.33
2023-05-23T03:50:08.559Z,40.17
2023-05-23T03:52:37.235Z,40.50
2023-05-23T03:55:06.854Z,37.75
2023-05-23T03:57:35.470Z,44.05
2023-05-23T04:00:06.646Z,44.00
2023-05-23T04:02:35.584Z,41.83
2023-05-23T04:05:04.401Z,36.73
2023-05-23T04:07:35.526Z,35.52
2023-05-23T04:10:05.659Z,37.15
2023-05-23T04:12:34.621Z,38.17
2023-05-23T04:15:04.002Z,42.23
2023-05-23T04:17:32.611Z,37.42
2023-05-23T04:20:01.742Z,36.03
2023-05-23T04:22:30.405Z,46.30
2023-05-23T04:24:59.140Z,60.43
2023-05-23T04:27:27.841Z,55.43
2023-05-23T04:29:58.283Z,51.88
2023-05-23T04:32:27.220Z,57.00
2023-05-23T04:34:57.041Z,55.40
2023-05-23T04:37:26.497Z,53.55
2023-05-23T04:39:55.526Z,57.98
2023-05-23T04:42:26.065Z,58.08
2023-05-23T04:44:56.704Z,50.67
2023-05-23T04:47:27.192Z,51.58
2023-05-23T04:49:57.719Z,54.33
2023-05-23T04:52:31.001Z,50.85
2023-05-23T04:55:00.306Z,48.20
2023-05-23T05:01:10.397Z,55.80
2023-05-23T05:03:38.994Z,63.75
2023-05-23T05:06:08.154Z,47.27
2023-05-23T05:11:31.805Z,43.13
2023-05-23T05:14:08.592Z,46.73
2023-05-23T05:16:38.091Z,51.58
2023-05-23T05:19:07.462Z,49.35
2023-05-23T05:21:37.188Z,56.20
2023-05-23T05:24:06.250Z,55.35
2023-05-23T05:26:36.915Z,52.50
2023-05-23T05:29:06.276Z,51.05
2023-05-23T05:31:38.170Z,63.10
2023-05-23T05:34:11.738Z,48.10
2023-05-23T05:37:03.270Z,54.93
2023-05-23T05:39:35.143Z,46.05
2023-05-23T05:42:09.938Z,51.45
2023-05-23T05:44:48.373Z,41.15
2023-05-23T05:47:18.550Z,46.02
2023-05-23T05:49:47.779Z,44.23
2023-05-23T05:52:16.524Z,55.12
2023-05-23T05:54:45.538Z,46.60
2023-05-23T05:57:17.401Z,37.38
2023-05-23T05:59:47.752Z,41.65
2023-05-23T06:02:16.666Z,45.03
2023-05-23T06:04:47.153Z,49.08
2023-05-23T06:07:17.315Z,37.35
2023-05-23T06:09:50.877Z,42.13
2023-05-23T06:12:19.559Z,43.90
2023-05-23T06:14:48.314Z,43.50
2023-05-23T06:17:17.464Z,44.83
2023-05-23T06:19:46.158Z,46.13
2023-05-23T06:22:14.969Z,43.55
2023-05-23T06:24:45.367Z,40.43
2023-05-23T06:27:31.249Z,44.65
2023-05-23T06:29:53.601Z,46.15
2023-05-23T06:32:22.657Z,40.43
2023-05-23T06:34:51.515Z,42.05
2023-05-23T06:37:20.222Z,46.65
2023-05-23T06:39:48.994Z,47.58
2023-05-23T06:42:17.731Z,53.83
2023-05-23T06:44:46.393Z,44.08
2023-05-23T06:47:16.690Z,38.83
2023-05-23T06:49:51.502Z,42.48
2023-05-23T06:52:20.274Z,45.00
2023-05-23T06:54:48.977Z,39.95
2023-05-23T06:57:19.179Z,38.73
2023-05-23T06:59:47.989Z,44.73
2023-05-23T07:02:16.938Z,42.55
2023-05-23T07:04:45.854Z,41.37
2023-05-23T07:07:14.993Z,35.17
2023-05-23T07:12:34.864Z,39.05
2023-05-23T07:15:03.909Z,43.68
2023-05-23T07:17:33.075Z,38.92
2023-05-23T07:20:12.521Z,46.48
2023-05-23T07:22:38.755Z,45.98
2023-05-23T07:25:10.710Z,46.75
2023-05-23T07:27:39.413Z,49.05
2023-05-23T07:30:10.055Z,49.13
2023-05-23T07:32:38.895Z,47.88
2023-05-23T07:35:16.280Z,44.83
2023-05-23T07:37:54.691Z,44.53
2023-05-23T07:40:28.794Z,55.48
2023-05-23T07:43:00.318Z,49.67
2023-05-23T07:45:29.066Z,47.65
2023-05-23T07:47:58.061Z,44.10
2023-05-23T07:50:30.295Z,47.23
2023-05-23T07:52:59.168Z,49.55
2023-05-23T07:55:27.881Z,54.13
2023-05-23T07:58:14.061Z,43.50
2023-05-23T08:00:47.869Z,44.40
2023-05-23T08:03:17.978Z,40.98
2023-05-23T08:05:46.952Z,41.75
2023-05-23T08:08:17.722Z,48.70
2023-05-23T08:10:47.309Z,43.02
2023-05-23T08:13:17.776Z,42.00
2023-05-23T08:15:46.503Z,49.67
2023-05-23T08:18:16.976Z,37.53
2023-05-23T08:20:46.050Z,35.10
2023-05-23T08:23:14.905Z,37.80
2023-05-23T08:25:46.907Z,29.98
2023-05-23T08:28:15.655Z,31.17
2023-05-23T08:30:47.062Z,27.02
2023-05-23T08:33:15.922Z,24.00
2023-05-23T08:35:44.676Z,35.73
2023-05-23T08:38:13.657Z,27.48
2023-05-23T08:43:25.509Z,27.30
2023-05-23T08:46:02.171Z,20.90
2023-05-23T08:48:42.164Z,20.40
2023-05-23T08:51:23.803Z,25.57
2023-05-23T08:53:55.566Z,40.35
2023-05-23T08:56:27.180Z,17.85
2023-05-23T08:58:56.886Z,16.93
2023-05-23T09:01:27.879Z,13.65
2023-05-23T09:04:13.441Z,20.00
2023-05-23T09:06:41.947Z,16.62
2023-05-23T09:09:11.124Z,15.50
2023-05-23T09:11:40.391Z,17.62
2023-05-23T09:14:13.702Z,21.35
2023-05-23T09:16:44.087Z,24.85
2023-05-23T09:19:28.501Z,14.38
2023-05-23T09:21:57.521Z,15.15
2023-05-23T09:24:32.493Z,14.23
2023-05-23T09:27:02.021Z,15.18
2023-05-23T09:32:31.574Z,11.03
2023-05-23T09:35:03.468Z,12.47
2023-05-23T09:37:38.033Z,10.00
2023-05-23T09:40:15.531Z,9.33
2023-05-23T09:42:47.090Z,10.58
2023-05-23T09:45:24.400Z,7.30
2023-05-23T09:48:18.017Z,11.63
2023-05-23T09:50:52.702Z,10.13
2023-05-23T09:53:29.253Z,8.23
2023-05-23T09:56:00.928Z,11.93
2023-05-23T09:58:33.540Z,13.18
2023-05-23T10:01:04.060Z,13.08
2023-05-23T10:03:46.845Z,12.93
2023-05-23T10:06:45.865Z,12.30
2023-05-23T10:09:17.564Z,9.93
2023-05-23T10:12:17.509Z,13.65
2023-05-23T10:14:48.944Z,18.62
2023-05-23T10:17:20.852Z,9.28
2023-05-23T10:19:58.577Z,9.63
2023-05-23T10:22:27.712Z,8.88
2023-05-23T10:24:57.617Z,5.67
2023-05-23T10:27:30.588Z,4.65
2023-05-23T10:30:10.369Z,8.30
2023-05-23T10:32:40.986Z,5.78
2023-05-23T10:35:33.566Z,8.60
2023-05-23T10:38:20.358Z,9.53
2023-05-23T10:40:57.166Z,6.80
2023-05-23T10:43:34.792Z,12.82
2023-05-23T10:46:05.430Z,6.58
2023-05-23T10:48:40.081Z,8.50
2023-05-23T10:51:17.661Z,7.25
2023-05-23T10:53:54.503Z,8.80
2023-05-23T10:56:25.328Z,12.53
2023-05-23T10:58:55.994Z,5.97
2023-05-23T11:01:25.525Z,6.15
2023-05-23T11:03:56.279Z,9.18
2023-05-23T11:06:33.881Z,4.08
2023-05-23T11:09:23.704Z,6.65
2023-05-23T11:12:14.391Z,10.80
2023-05-23T11:14:57.977Z,11.30
2023-05-23T11:17:47.640Z,7.03
2023-05-23T11:23:37.244Z,7.78
2023-05-23T11:26:06.190Z,5.00
2023-05-23T11:28:46.545Z,6.17
2023-05-23T11:31:15.368Z,6.03
2023-05-23T11:33:50.641Z,7.28
2023-05-23T11:39:18.334Z,9.18
2023-05-23T11:41:46.860Z,6.12
2023-05-23T11:44:15.613Z,5.28
2023-05-23T11:46:47.345Z,6.72
2023-05-23T11:49:19.609Z,9.43
2023-05-23T11:51:47.918Z,6.67
2023-05-23T11:54:18.471Z,12.50
2023-05-23T11:56:47.381Z,5.50
2023-05-23T11:59:18.322Z,11.03
2023-05-23T12:01:49.770Z,8.08
2023-05-23T12:04:21.581Z,10.40
2023-05-23T12:06:53.132Z,11.53
2023-05-23T12:09:22.314Z,8.00
2023-05-23T12:11:52.622Z,9.35
2023-05-23T12:14:25.726Z,5.60
2023-05-23T12:17:05.488Z,10.45
2023-05-23T12:19:40.189Z,7.53
2023-05-23T12:22:11.717Z,4.92
2023-05-23T12:24:43.400Z,9.03
2023-05-23T12:27:12.145Z,6.83
2023-05-23T12:29:43.826Z,10.75
2023-05-23T12:32:12.641Z,6.12
2023-05-23T12:34:44.463Z,8.88
2023-05-23T12:40:23.006Z,5.37
2023-05-23T12:43:00.975Z,7.03
2023-05-23T12:46:23.994Z,5.60
2023-05-23T12:48:36.218Z,9.28
2023-05-23T12:51:05.498Z,3.40
2023-05-23T12:53:41.153Z,4.87
2023-05-23T12:56:10.084Z,6.58
2023-05-23T12:58:57.294Z,7.92
2023-05-23T13:01:53.847Z,5.10
2023-05-23T13:04:22.407Z,10.40
2023-05-23T13:06:56.716Z,4.70
2023-05-23T13:09:32.144Z,6.65
2023-05-23T13:15:07.488Z,6.70
2023-05-23T13:17:49.954Z,7.90
2023-05-23T13:23:21.293Z,4.28
2023-05-23T13:25:53.247Z,6.90
2023-05-23T13:28:25.543Z,6.17
2023-05-23T13:30:54.520Z,3.55
2023-05-23T13:33:23.894Z,6.12
2023-05-23T13:35:53.047Z,6.17
2023-05-23T13:38:36.590Z,4.83
2023-05-23T13:41:07.355Z,4.90
2023-05-23T13:43:51.422Z,6.03
2023-05-23T13:46:18.976Z,27.27
2023-05-23T13:48:47.710Z,9.28
2023-05-23T13:51:19.698Z,7.87
2023-05-23T13:57:02.004Z,5.40
2023-05-23T13:59:31.008Z,3.55
2023-05-23T14:02:09.935Z,5.40
2023-05-23T14:04:38.973Z,3.95
2023-05-23T14:07:23.537Z,7.45
2023-05-23T14:09:52.911Z,4.78
2023-05-23T14:12:21.312Z,4.87
2023-05-23T14:14:50.206Z,8.95
2023-05-23T14:17:19.216Z,4.30
2023-05-23T14:22:38.919Z,5.83
2023-05-23T14:25:13.677Z,5.15
2023-05-23T14:27:42.412Z,6.97
2023-05-23T14:30:13.087Z,7.75
2023-05-23T14:32:47.777Z,6.90
2023-05-23T14:35:16.548Z,9.10
2023-05-23T14:37:48.255Z,5.12
2023-05-23T14:43:12.877Z,4.55
2023-05-23T14:52:01.781Z,9.38
2023-05-23T14:57:50.833Z,8.33
2023-05-23T15:00:25.770Z,5.87
2023-05-23T15:05:49.169Z,6.75
2023-05-23T15:08:18.634Z,6.42
2023-05-23T15:11:16.086Z,8.70
2023-05-23T15:14:02.749Z,5.37
2023-05-23T15:16:25.690Z,8.68
2023-05-23T15:18:54.484Z,4.65
2023-05-23T15:21:23.280Z,7.55
2023-05-23T15:24:00.925Z,6.58
2023-05-23T15:26:29.980Z,6.70
2023-05-23T15:28:59.060Z,4.58
2023-05-23T15:31:28.402Z,6.22
2023-05-23T15:33:57.207Z,8.65
2023-05-23T15:36:27.568Z,6.80
2023-05-23T15:38:57.760Z,5.05
2023-05-23T15:41:36.587Z,6.50
2023-05-23T15:44:06.088Z,5.20
2023-05-23T15:46:37.088Z,7.58
2023-05-23T15:49:24.552Z,9.13
2023-05-23T15:52:11.593Z,7.08
2023-05-23T15:54:40.446Z,4.62
2023-05-23T15:57:12.211Z,6.22
2023-05-23T15:59:42.526Z,8.73
2023-05-23T16:02:11.387Z,4.10
2023-05-23T16:07:40.836Z,7.08
2023-05-23T16:10:27.962Z,5.75
2023-05-23T16:12:58.178Z,8.18
2023-05-23T16:15:26.953Z,8.25
2023-05-23T16:17:55.813Z,6.53
2023-05-23T16:20:24.737Z,7.12
2023-05-23T16:22:53.538Z,9.08
2023-05-23T16:25:22.588Z,10.72
2023-05-23T16:27:57.071Z,6.12
2023-05-23T16:30:45.301Z,9.10
2023-05-23T16:36:09.462Z,6.62
2023-05-23T16:38:47.784Z,3.83
2023-05-23T16:41:30.594Z,8.83
2023-05-23T16:44:05.711Z,4.60
2023-05-23T16:46:36.600Z,8.03
2023-05-23T16:49:30.437Z,7.55
2023-05-23T16:51:59.179Z,12.23
2023-05-23T16:54:30.894Z,6.00
2023-05-23T16:57:01.262Z,9.65
2023-05-23T16:59:31.861Z,6.92
2023-05-23T17:02:00.758Z,5.35
2023-05-23T17:04:29.620Z,7.33
2023-05-23T17:07:05.989Z,9.28
2023-05-23T17:09:48.131Z,9.80
2023-05-23T17:12:18.510Z,7.58
2023-05-23T17:14:49.042Z,10.05
2023-05-23T17:17:17.874Z,8.18
2023-05-23T17:19:46.697Z,6.03
2023-05-23T17:22:15.434Z,9.35
2023-05-23T17:24:44.116Z,6.62
2023-05-23T17:27:17.370Z,9.05
2023-05-23T17:29:46.176Z,16.05
2023-05-23T17:32:15.358Z,11.68
2023-05-23T17:34:44.385Z,13.22
2023-05-23T17:37:20.018Z,11.03
2023-05-23T17:39:50.405Z,9.85
2023-05-23T17:42:19.163Z,9.18
2023-05-23T17:44:47.938Z,10.75
2023-05-23T17:47:18.387Z,10.50
2023-05-23T17:49:48.693Z,11.63
2023-05-23T17:52:17.790Z,22.90
2023-05-23T17:54:47.564Z,13.48
2023-05-23T17:57:17.743Z,7.87
2023-05-23T17:59:46.716Z,6.92
2023-05-23T18:02:29.437Z,5.40
2023-05-23T18:04:47.672Z,7.87
2023-05-23T18:07:18.740Z,6.55
2023-05-23T18:09:48.488Z,5.78
2023-05-23T18:12:17.916Z,6.28
2023-05-23T18:14:46.771Z,6.90
2023-05-23T18:17:17.493Z,7.50
2023-05-23T18:19:49.622Z,8.68
2023-05-23T18:22:20.018Z,8.63
2023-05-23T18:24:48.689Z,6.75
2023-05-23T18:27:17.633Z,12.93
2023-05-23T18:29:46.335Z,10.90
2023-05-23T18:32:16.560Z,16.67
2023-05-23T18:34:45.194Z,17.30
2023-05-23T18:37:16.260Z,15.55
2023-05-23T18:39:45.011Z,10.48
2023-05-23T18:42:16.648Z,13.25
2023-05-23T18:44:49.997Z,11.38
2023-05-23T18:47:18.571Z,16.87
2023-05-23T18:49:50.489Z,14.30
2023-05-23T18:52:23.200Z,14.68
2023-05-23T18:54:55.047Z,14.70
2023-05-23T18:57:24.222Z,14.07
2023-05-23T18:59:52.987Z,13.60
2023-05-23T19:02:21.815Z,20.80
2023-05-23T19:04:56.758Z,24.87
2023-05-23T19:07:25.221Z,19.48
2023-05-23T19:09:54.128Z,24.92
2023-05-23T19:12:22.792Z,17.80
2023-05-23T19:14:52.058Z,21.20
2023-05-23T19:17:20.919Z,25.10
2023-05-23T19:19:53.727Z,21.40
2023-05-23T19:22:27.876Z,21.02
2023-05-23T19:24:55.178Z,18.95
2023-05-23T19:27:26.134Z,19.50
2023-05-23T19:30:02.724Z,25.00
2023-05-23T19:32:33.705Z,17.12
2023-05-23T19:38:18.984Z,15.80
2023-05-23T19:40:49.970Z,26.48
2023-05-23T19:43:22.289Z,17.23
2023-05-23T19:46:03.484Z,24.82
2023-05-23T19:48:42.934Z,18.62
2023-05-23T19:51:13.873Z,18.62
2023-05-23T19:53:54.092Z,26.55
2023-05-23T20:03:05.416Z,18.95
2023-05-23T20:05:37.362Z,22.90
2023-05-23T20:08:06.435Z,20.55
2023-05-23T20:10:35.485Z,17.67
2023-05-23T20:13:08.597Z,18.37
2023-05-23T20:15:39.945Z,25.17
2023-05-23T20:18:08.281Z,20.45
2023-05-23T20:20:43.249Z,17.98
2023-05-23T20:23:23.320Z,15.83
2023-05-23T20:26:09.570Z,15.50
2023-05-23T20:28:39.743Z,23.22
2023-05-23T20:34:21.052Z,16.15
2023-05-23T20:36:50.230Z,20.37
2023-05-23T20:39:21.832Z,23.55
2023-05-23T20:41:49.593Z,19.20
2023-05-23T20:44:18.499Z,16.23
2023-05-23T20:46:47.665Z,20.75
2023-05-23T20:49:25.339Z,15.32
2023-05-23T20:51:54.528Z,26.10
2023-05-23T20:54:28.430Z,16.25
2023-05-23T20:57:50.312Z,23.98
2023-05-23T21:00:20.869Z,17.98
2023-05-23T21:02:54.163Z,25.27
2023-05-23T21:05:30.685Z,25.82
2023-05-23T21:08:05.742Z,20.10
2023-05-23T21:10:34.557Z,22.98
2023-05-23T21:13:03.935Z,17.70
2023-05-23T21:15:32.728Z,19.57
2023-05-23T21:18:07.896Z,16.65
2023-05-23T21:20:38.382Z,26.05
2023-05-23T21:23:11.577Z,17.67
2023-05-23T21:25:40.440Z,17.07
2023-05-23T21:28:09.167Z,20.12
2023-05-23T21:30:41.684Z,19.40
2023-05-23T21:33:13.484Z,21.33
2023-05-23T21:35:42.457Z,19.10
2023-05-23T21:38:11.603Z,15.45
2023-05-23T21:40:40.980Z,16.27
2023-05-23T21:43:09.929Z,13.43
2023-05-23T21:45:38.654Z,16.40
2023-05-23T21:48:07.382Z,12.05
2023-05-23T21:50:36.164Z,15.45
2023-05-23T21:53:04.772Z,15.32
2023-05-23T21:55:33.385Z,12.63
2023-05-23T21:58:03.733Z,16.60
2023-05-23T22:00:32.462Z,17.45
2023-05-23T22:03:01.217Z,17.25
2023-05-23T22:05:30.015Z,11.90
2023-05-23T22:07:58.634Z,17.73
2023-05-23T22:10:27.329Z,15.55
2023-05-23T22:13:17.605Z,18.17
2023-05-23T22:15:46.744Z,21.50
2023-05-23T22:18:16.299Z,18.27
2023-05-23T22:20:45.324Z,21.73
2023-05-23T22:23:15.575Z,24.25
2023-05-23T22:25:44.773Z,15.85
2023-05-23T22:28:13.599Z,20.10
2023-05-23T22:30:42.477Z,17.90
2023-05-23T22:33:13.890Z,21.27
2023-05-23T22:35:43.409Z,22.20
2023-05-23T22:38:14.699Z,17.27
2023-05-23T22:40:43.728Z,15.43
2023-05-23T22:43:12.586Z,16.85
2023-05-23T22:45:42.617Z,16.48
2023-05-23T22:48:11.866Z,17.57
2023-05-23T22:50:44.593Z,20.20
2023-05-23T22:53:15.423Z,14.00
2023-05-23T22:55:44.482Z,14.87
2023-05-23T22:58:13.887Z,19.48
2023-05-23T23:00:43.764Z,14.75
2023-05-23T23:03:15.537Z,12.98
2023-05-23T23:05:44.558Z,21.65
2023-05-23T23:08:13.477Z,15.93
2023-05-23T23:10:45.389Z,15.40
2023-05-23T23:13:16.894Z,15.08
2023-05-23T23:15:48.734Z,19.80
2023-05-23T23:18:19.087Z,19.52
2023-05-23T23:20:48.557Z,19.40
2023-05-23T23:23:17.429Z,20.25
2023-05-23T23:25:47.798Z,16.97
2023-05-23T23:28:17.749Z,24.12
2023-05-23T23:30:46.936Z,16.73
2023-05-23T23:33:16.085Z,22.52
2023-05-23T23:35:46.683Z,21.70
2023-05-23T23:38:16.445Z,24.55
2023-05-23T23:40:45.841Z,25.68
2023-05-23T23:43:19.386Z,33.48
2023-05-23T23:45:48.115Z,19.40
2023-05-23T23:48:16.833Z,18.95
2023-05-23T23:50:46.999Z,16.48
2023-05-23T23:53:16.907Z,19.90
2023-05-23T23:55:45.745Z,22.10
2023-05-23T23:58:14.581Z,18.20
